Kensington, KS (66951)

11:32 AM CDT on July 30, 2014 (GMT -0500)
Near 14th and K (KNEFRANK2) Elev 1850 ft | 40.09 °N, 98.95 °W | Change Station

Current weather conditions updated 3 seconds ago

Clear
Clear
72.3 °F
Feels Like 76 °F
N
2.5
Wind Variable Wind from SSE
Gusts 6.9 mph

Today is forecast to be Cooler than yesterday.

Today
High -- | Low -- °F
--% Chance of Precip.
Yesterday
High -- | Low -- °F
Precip. -- in
6:33 AM 8:51 PM
Waxing Crescent, 12% visible
Pressure 30.20 in
Visibility 10.0 miles
Clouds Clear
Heat Index 76 °F
Dew Point 59 °F
Humidity 64%
Rainfall 0.00 in
Snow Depth Not available.
UV 8 out of 12
Pollen 4.00 out of 12
Air Quality Not available.
Flu Activity Not available.
METAR KHDE 301615Z AUTO 12006KT 10SM CLR 23/13 A3020 RMK AO2 T02250131

More Conditions Fewer Conditions

Pressure 30.20 in
Visibility 10.0 miles
Clouds Clear
Heat Index 76 °F
Dew Point 59 °F
Humidity 64%
Rainfall 0.00 in
Snow Depth Not available.
UV 8 out of 12
Pollen 4.00 out of 12
Air Quality Not available.
Flu Activity Not available.
METAR KHDE 301615Z AUTO 12006KT 10SM CLR 23/13 A3020 RMK AO2 T02250131

More Conditions Fewer Conditions

10-Day Weather Forecast

Almanac

Astronomy

Jul. 30, 2014 Rise Set
Actual Time 6:33 AM CDT 8:51 PM CDT
Civil Twilight 6:02 AM CDT 9:21 PM CDT
Nautical Twilight 5:25 AM CDT 9:58 PM CDT
Astronomical Twilight 4:44 AM CDT 10:39 PM CDT
Moon 10:05 AM CDT 10:35 PM CDT
Length of Visible Light 15h 18m
Length of Day
14h 17m
Tomorrow will be 1m 55s shorter.
Waxing Crescent, 12% of the Moon is Illuminated
Today
Waxing Crescent
Aug 3
First Quarter
Aug 10
Full
Aug 17
Last Quarter
Aug 25
New

Today's Extremes

State Highs State Lows

Community

WunderPhotos

Upload Photos

1,739,133 photos uploaded!

WunderBlogs® & News

By Dr. Jeff Masters
Director of Meteorology, Weather Underground
By Kari Strenfel
Meteorologist, Weather Underground
By Christopher C. Burt
Weather Historian, Weather Underground
July 30, 2014
July 30, 2014
July 30, 2014

Nearby

Snow Depth

Station Depth Elevation
No new snow has been reported.

Earthquake Activity

City Distance Mag. Time & Date
No recent earthquake activity has been reported nearby.
Minimum magnitude displayed is 2.5.

Coastal Water Temperatures

Place Temperature
No Stations Reporting

Nearby Weather Stations

Station Location Temp. Heat Index Dew Point Humidity Wind Precip. Elev Updated Type
RAWS KIRWIN KS, Kirwin, KS 66 °F - 63 °F 90% NE  at  5 mph 0.00 in / hr 1747 ft 9:56 AM CDT MADIS
MesoWest PHILLIPSBURG , Phillipsburg, KS 66 °F - 63 °F 89% NE  at  4 mph 0.01 in / hr 1985 ft 10:00 AM CDT MADIS
Near 14th and K, Franklin, NE 72.3 °F 76 °F 59 °F 64% SSE  at  2.5 mph 0.00 in / hr 1850 ft 11:32 AM CDT Rapid Fire

Show More Stations Show Fewer Stations